createdAt,value
2023-05-13T00:00:50.035Z,12.28
2023-05-13T00:03:18.642Z,12.26
2023-05-13T00:05:46.978Z,12.24
2023-05-13T00:08:14.987Z,12.19
2023-05-13T00:10:42.893Z,12.15
2023-05-13T00:13:10.870Z,12.11
2023-05-13T00:15:38.798Z,12.06
2023-05-13T00:18:06.980Z,12.02
2023-05-13T00:20:34.905Z,11.97
2023-05-13T00:23:03.389Z,11.93
2023-05-13T00:25:31.371Z,11.91
2023-05-13T00:27:59.366Z,11.88
2023-05-13T00:30:27.304Z,11.85
2023-05-13T00:32:55.445Z,11.81
2023-05-13T00:35:23.441Z,11.78
2023-05-13T00:37:51.328Z,11.72
2023-05-13T00:40:24.570Z,11.66
2023-05-13T00:42:53.983Z,11.61
2023-05-13T00:45:21.914Z,11.57
2023-05-13T00:47:50.361Z,11.48
2023-05-13T00:50:18.749Z,11.41
2023-05-13T00:52:49.876Z,11.38
2023-05-13T00:55:17.916Z,11.37
2023-05-13T00:57:45.883Z,11.33
2023-05-13T01:00:14.380Z,11.28
2023-05-13T01:02:57.340Z,11.23
2023-05-13T01:05:35.318Z,11.15
2023-05-13T01:08:06.188Z,11.12
2023-05-13T01:10:49.852Z,11.10
2023-05-13T01:13:24.783Z,11.07
2023-05-13T01:16:10.496Z,11.03
2023-05-13T01:18:43.783Z,11.00
2023-05-13T01:21:12.516Z,10.97
2023-05-13T01:23:40.509Z,10.94
2023-05-13T01:26:08.634Z,10.91
2023-05-13T01:28:36.877Z,10.88
2023-05-13T01:31:06.227Z,10.86
2023-05-13T01:33:34.331Z,10.84
2023-05-13T01:36:03.215Z,10.82
2023-05-13T01:38:33.026Z,10.79
2023-05-13T01:41:01.394Z,10.77
2023-05-13T01:43:31.459Z,10.74
2023-05-13T01:46:01.028Z,10.70
2023-05-13T01:48:29.101Z,10.66
2023-05-13T01:50:58.411Z,10.64
2023-05-13T01:53:26.954Z,10.59
2023-05-13T01:55:54.819Z,10.55
2023-05-13T01:58:22.956Z,10.51
2023-05-13T02:00:51.029Z,10.47
2023-05-13T02:03:19.456Z,10.42
2023-05-13T02:05:49.026Z,10.38
2023-05-13T02:08:16.909Z,10.35
2023-05-13T02:10:45.300Z,10.32
2023-05-13T02:13:13.250Z,10.26
2023-05-13T02:15:41.724Z,10.24
2023-05-13T02:18:10.434Z,10.21
2023-05-13T02:20:38.456Z,10.18
2023-05-13T02:23:07.005Z,10.15
2023-05-13T02:25:36.836Z,10.11
2023-05-13T02:28:04.940Z,10.07
2023-05-13T02:30:33.053Z,10.03
2023-05-13T02:33:01.652Z,9.97
2023-05-13T02:35:30.148Z,9.91
2023-05-13T02:37:58.817Z,9.84
2023-05-13T02:40:27.545Z,9.82
2023-05-13T02:42:55.877Z,9.78
2023-05-13T02:45:26.110Z,9.74
2023-05-13T02:47:54.399Z,9.70
2023-05-13T02:50:23.272Z,9.67
2023-05-13T02:52:51.901Z,9.65
2023-05-13T02:55:20.075Z,9.62
2023-05-13T02:57:48.048Z,9.58
2023-05-13T03:00:16.760Z,9.56
2023-05-13T03:02:44.783Z,9.53
2023-05-13T03:05:12.767Z,9.50
2023-05-13T03:07:40.764Z,9.44
2023-05-13T03:10:09.290Z,9.39
2023-05-13T03:12:37.203Z,9.37
2023-05-13T03:15:05.337Z,9.38
2023-05-13T03:17:33.602Z,9.40
2023-05-13T03:20:01.642Z,9.41
2023-05-13T03:22:29.896Z,9.41
2023-05-13T03:24:58.611Z,9.40
2023-05-13T03:27:33.342Z,9.41
2023-05-13T03:30:01.317Z,9.43
2023-05-13T03:32:32.013Z,9.49
2023-05-13T03:35:03.187Z,9.56
2023-05-13T03:37:31.405Z,9.66
2023-05-13T03:39:59.384Z,9.77
2023-05-13T03:42:27.939Z,9.88
2023-05-13T03:44:57.240Z,10.00
2023-05-13T03:47:25.627Z,10.10
2023-05-13T03:49:54.637Z,10.22
2023-05-13T03:52:23.213Z,10.34
2023-05-13T03:54:51.197Z,10.52
2023-05-13T03:57:19.248Z,10.76
2023-05-13T03:59:47.611Z,11.12
2023-05-13T04:02:15.525Z,11.53
2023-05-13T04:04:43.474Z,11.94
2023-05-13T04:07:11.385Z,12.33
2023-05-13T04:09:39.411Z,12.71
2023-05-13T04:12:07.534Z,13.06
2023-05-13T04:14:35.444Z,13.39
2023-05-13T04:17:04.150Z,13.65
2023-05-13T04:19:32.193Z,13.89
2023-05-13T04:22:00.289Z,14.21
2023-05-13T04:24:28.145Z,14.53
2023-05-13T04:26:56.189Z,14.75
2023-05-13T04:29:24.925Z,14.92
2023-05-13T04:31:52.924Z,15.14
2023-05-13T04:34:21.326Z,15.33
2023-05-13T04:36:49.760Z,15.65
2023-05-13T04:39:17.710Z,16.07
2023-05-13T04:41:46.353Z,16.45
2023-05-13T04:44:14.394Z,16.70
2023-05-13T04:46:45.010Z,16.88
2023-05-13T04:49:13.104Z,16.93
2023-05-13T04:51:41.713Z,16.82
2023-05-13T04:54:10.202Z,16.69
2023-05-13T04:56:38.176Z,16.60
2023-05-13T04:59:06.133Z,16.49
2023-05-13T05:01:34.184Z,16.39
2023-05-13T05:04:02.727Z,16.29
2023-05-13T05:06:32.603Z,16.15
2023-05-13T05:09:01.231Z,16.00
2023-05-13T05:11:29.300Z,15.81
2023-05-13T05:13:57.745Z,15.63
2023-05-13T05:16:25.776Z,15.49
2023-05-13T05:18:53.806Z,15.40
2023-05-13T05:21:21.864Z,15.34
2023-05-13T05:23:50.616Z,15.37
2023-05-13T05:26:19.808Z,15.41
2023-05-13T05:28:48.618Z,15.38
2023-05-13T05:31:18.293Z,15.42
2023-05-13T05:33:46.309Z,15.49
2023-05-13T05:36:14.244Z,15.52
2023-05-13T05:38:42.194Z,15.60
2023-05-13T05:41:11.032Z,15.66
2023-05-13T05:43:39.003Z,15.73
2023-05-13T05:46:07.125Z,15.84
2023-05-13T05:48:35.182Z,15.90
2023-05-13T05:51:04.224Z,15.91
2023-05-13T05:53:37.637Z,15.89
2023-05-13T05:56:06.894Z,15.89
2023-05-13T05:58:36.019Z,15.91
2023-05-13T06:01:04.061Z,15.93
2023-05-13T06:03:32.226Z,15.96
2023-05-13T06:06:00.415Z,15.99
2023-05-13T06:08:30.464Z,15.98
2023-05-13T06:10:59.446Z,15.89
2023-05-13T06:13:27.605Z,15.80
2023-05-13T06:15:56.451Z,15.79
2023-05-13T06:18:24.630Z,15.77
2023-05-13T06:20:52.559Z,15.80
2023-05-13T06:23:20.502Z,15.85
2023-05-13T06:25:48.507Z,15.87
2023-05-13T06:28:16.556Z,15.84
2023-05-13T06:30:46.030Z,15.92
2023-05-13T06:33:14.057Z,16.04
2023-05-13T06:35:42.310Z,16.19
2023-05-13T06:38:13.247Z,16.31
2023-05-13T06:40:41.416Z,16.43
2023-05-13T06:43:09.439Z,16.58
2023-05-13T06:45:40.366Z,16.77
2023-05-13T06:48:08.661Z,17.12
2023-05-13T06:50:38.167Z,17.49
2023-05-13T06:53:06.155Z,17.79
2023-05-13T06:55:35.993Z,17.97
2023-05-13T06:58:03.924Z,18.07
2023-05-13T07:00:31.858Z,18.10
2023-05-13T07:02:59.974Z,18.04
2023-05-13T07:05:27.930Z,18.00
2023-05-13T07:07:55.925Z,17.99
2023-05-13T07:10:24.244Z,17.98
2023-05-13T07:12:52.681Z,17.97
2023-05-13T07:15:21.234Z,17.99
2023-05-13T07:17:49.531Z,18.04
2023-05-13T07:20:22.230Z,18.12
2023-05-13T07:22:51.250Z,18.25
2023-05-13T07:25:19.246Z,18.44
2023-05-13T07:27:47.939Z,18.64
2023-05-13T07:30:16.111Z,18.96
2023-05-13T07:32:44.308Z,19.27
2023-05-13T07:35:12.422Z,19.61
2023-05-13T07:37:40.486Z,19.79
2023-05-13T07:40:09.088Z,19.91
2023-05-13T07:42:37.602Z,20.04
2023-05-13T07:45:06.678Z,20.10
2023-05-13T07:47:34.829Z,20.05
2023-05-13T07:50:02.889Z,19.83
2023-05-13T07:52:31.805Z,19.73
2023-05-13T07:54:59.692Z,19.68
2023-05-13T07:57:27.681Z,19.64
2023-05-13T07:59:55.718Z,19.62
2023-05-13T08:02:24.554Z,19.62
2023-05-13T08:04:52.548Z,19.60
2023-05-13T08:07:20.607Z,19.54
2023-05-13T08:09:48.522Z,19.50
2023-05-13T08:12:16.433Z,19.47
2023-05-13T08:14:44.310Z,19.56
2023-05-13T08:17:12.186Z,19.61
2023-05-13T08:19:40.441Z,19.56
2023-05-13T08:22:08.379Z,19.51
2023-05-13T08:24:36.309Z,19.54
2023-05-13T08:27:05.827Z,19.67
2023-05-13T08:29:33.720Z,19.81
2023-05-13T08:32:01.723Z,19.96
2023-05-13T08:34:29.708Z,20.02
2023-05-13T08:36:57.544Z,20.11
2023-05-13T08:39:25.574Z,20.21
2023-05-13T08:41:56.938Z,20.32
2023-05-13T08:44:28.764Z,20.44
2023-05-13T08:47:18.724Z,20.61
2023-05-13T08:49:47.062Z,20.79
2023-05-13T08:52:14.958Z,20.91
2023-05-13T08:54:44.207Z,21.01
2023-05-13T08:57:12.132Z,21.04
2023-05-13T08:59:40.373Z,21.14
2023-05-13T09:02:10.427Z,21.29
2023-05-13T09:04:41.277Z,21.33
2023-05-13T09:07:09.846Z,21.20
2023-05-13T09:09:38.060Z,21.21
2023-05-13T09:12:06.216Z,21.41
2023-05-13T09:14:34.679Z,21.55
2023-05-13T09:17:02.615Z,21.69
2023-05-13T09:19:31.230Z,21.79
2023-05-13T09:21:59.449Z,21.81
2023-05-13T09:24:27.862Z,21.88
2023-05-13T09:26:55.747Z,21.92
2023-05-13T09:29:24.771Z,22.04
2023-05-13T09:31:58.181Z,22.18
2023-05-13T09:34:27.008Z,22.28
2023-05-13T09:37:03.250Z,22.36
2023-05-13T09:39:34.337Z,22.46
2023-05-13T09:42:04.669Z,22.52
2023-05-13T09:44:34.100Z,22.56
2023-05-13T09:47:02.930Z,22.56
2023-05-13T09:49:31.863Z,22.56
2023-05-13T09:51:59.919Z,22.52
2023-05-13T09:54:34.362Z,22.37
2023-05-13T09:57:03.160Z,22.29
2023-05-13T09:59:36.821Z,22.19
2023-05-13T10:02:07.112Z,22.03
2023-05-13T10:04:35.439Z,21.89
2023-05-13T10:07:05.131Z,21.79
2023-05-13T10:09:37.407Z,21.69
2023-05-13T10:12:08.606Z,21.70
2023-05-13T10:14:37.463Z,21.75
2023-05-13T10:17:06.630Z,21.88
2023-05-13T10:19:35.294Z,21.91
2023-05-13T10:22:03.654Z,21.84
2023-05-13T10:24:32.604Z,21.72
2023-05-13T10:27:01.880Z,21.70
2023-05-13T10:29:30.112Z,21.74
2023-05-13T10:31:59.898Z,21.70
2023-05-13T10:34:28.777Z,21.65
2023-05-13T10:37:06.190Z,21.69
2023-05-13T10:40:06.633Z,21.76
2023-05-13T10:42:43.133Z,21.72
2023-05-13T10:45:11.432Z,21.73
2023-05-13T10:47:39.648Z,21.62
2023-05-13T10:50:23.469Z,21.44
2023-05-13T10:52:56.099Z,21.34
2023-05-13T10:55:26.200Z,21.36
2023-05-13T10:58:13.297Z,21.38
2023-05-13T11:00:45.671Z,21.54
2023-05-13T11:03:16.622Z,21.70
2023-05-13T11:05:58.726Z,21.81
2023-05-13T11:08:40.365Z,21.84
2023-05-13T11:11:23.585Z,21.57
2023-05-13T11:13:53.313Z,21.27
2023-05-13T11:16:23.175Z,21.21
2023-05-13T11:18:53.106Z,21.40
2023-05-13T11:21:39.560Z,21.62
2023-05-13T11:24:08.232Z,21.61
2023-05-13T11:26:54.361Z,21.64
2023-05-13T11:29:29.897Z,21.57
2023-05-13T11:32:00.523Z,21.55
2023-05-13T11:34:29.733Z,21.72
2023-05-13T11:37:04.127Z,21.91
2023-05-13T11:39:33.121Z,22.12
2023-05-13T11:42:02.999Z,22.33
2023-05-13T11:44:31.134Z,22.53
2023-05-13T11:47:00.893Z,22.72
2023-05-13T11:49:34.646Z,22.95
2023-05-13T11:52:04.511Z,23.12
2023-05-13T11:54:32.709Z,23.23
2023-05-13T11:57:00.839Z,23.38
2023-05-13T11:59:35.869Z,23.49
2023-05-13T12:02:06.798Z,23.59
2023-05-13T12:04:35.464Z,23.63
2023-05-13T12:07:03.667Z,23.65
2023-05-13T12:09:31.528Z,23.59
2023-05-13T12:11:59.615Z,23.48
2023-05-13T12:14:27.965Z,23.45
2023-05-13T12:16:57.401Z,23.42
2023-05-13T12:19:25.423Z,23.40
2023-05-13T12:21:53.473Z,23.36
2023-05-13T12:24:22.207Z,23.30
2023-05-13T12:26:50.437Z,23.27
2023-05-13T12:29:18.362Z,23.21
2023-05-13T12:32:04.118Z,23.14
2023-05-13T12:34:33.845Z,23.06
2023-05-13T12:37:14.637Z,22.90
2023-05-13T12:39:42.941Z,22.55
2023-05-13T12:42:18.317Z,21.89
2023-05-13T12:44:47.145Z,21.05
2023-05-13T12:47:19.884Z,20.48
2023-05-13T12:49:54.963Z,20.25
2023-05-13T12:52:22.918Z,20.24
2023-05-13T12:54:50.891Z,20.25
2023-05-13T12:57:20.604Z,20.23
2023-05-13T12:59:48.674Z,20.20
2023-05-13T13:02:16.571Z,20.08
2023-05-13T13:04:44.514Z,19.95
2023-05-13T13:07:14.730Z,19.83
2023-05-13T13:09:42.859Z,19.78
2023-05-13T13:12:10.932Z,19.66
2023-05-13T13:14:38.798Z,19.56
2023-05-13T13:17:07.130Z,19.57
2023-05-13T13:19:35.043Z,19.51
2023-05-13T13:22:03.196Z,19.29
2023-05-13T13:24:31.577Z,18.93
2023-05-13T13:26:59.507Z,18.47
2023-05-13T13:29:27.383Z,18.20
2023-05-13T13:31:55.328Z,18.21
2023-05-13T13:34:23.272Z,18.21
2023-05-13T13:36:51.236Z,18.18
2023-05-13T13:39:19.294Z,18.12
2023-05-13T13:41:47.349Z,18.16
2023-05-13T13:44:15.413Z,18.37
2023-05-13T13:46:43.557Z,18.59
2023-05-13T13:49:20.335Z,18.76
2023-05-13T13:51:53.881Z,18.88
2023-05-13T13:54:21.835Z,18.98
2023-05-13T13:56:49.871Z,19.09
2023-05-13T13:59:19.337Z,19.19
2023-05-13T14:01:47.500Z,19.25
2023-05-13T14:04:19.880Z,19.33
2023-05-13T14:06:47.864Z,19.42
2023-05-13T14:09:16.209Z,19.49
2023-05-13T14:11:44.257Z,19.55
2023-05-13T14:14:12.341Z,19.59
2023-05-13T14:16:40.398Z,19.63
2023-05-13T14:19:08.586Z,19.71
2023-05-13T14:21:36.543Z,19.64
2023-05-13T14:24:04.642Z,19.50
2023-05-13T14:26:32.596Z,19.49
2023-05-13T14:29:00.484Z,19.53
2023-05-13T14:31:28.510Z,19.61
2023-05-13T14:33:56.770Z,19.69
2023-05-13T14:36:26.686Z,19.77
2023-05-13T14:38:54.776Z,19.85
2023-05-13T14:41:23.240Z,19.96
2023-05-13T14:43:51.615Z,20.09
2023-05-13T14:46:19.624Z,20.22
2023-05-13T14:48:47.694Z,20.33
2023-05-13T14:51:15.659Z,20.40
2023-05-13T14:53:43.616Z,20.50
2023-05-13T14:56:11.635Z,20.60
2023-05-13T14:58:39.584Z,20.69
2023-05-13T15:01:07.525Z,20.75
2023-05-13T15:03:35.552Z,20.80
2023-05-13T15:06:03.725Z,20.76
2023-05-13T15:08:31.846Z,20.74
2023-05-13T15:11:00.453Z,20.74
2023-05-13T15:13:29.784Z,20.74
2023-05-13T15:15:57.668Z,20.72
2023-05-13T15:18:25.647Z,20.70
2023-05-13T15:20:53.566Z,20.71
2023-05-13T15:23:21.529Z,20.72
2023-05-13T15:25:49.548Z,20.70
2023-05-13T15:28:17.466Z,20.68
2023-05-13T15:30:45.519Z,20.66
2023-05-13T15:33:13.559Z,20.61
2023-05-13T15:35:42.532Z,20.56
2023-05-13T15:38:10.865Z,20.51
2023-05-13T15:40:39.251Z,20.45
2023-05-13T15:43:07.126Z,20.39
2023-05-13T15:45:35.121Z,20.33
2023-05-13T15:48:03.161Z,20.24
2023-05-13T15:50:31.201Z,20.17
2023-05-13T15:52:59.431Z,20.12
2023-05-13T15:55:27.405Z,20.03
2023-05-13T15:57:55.357Z,19.94
2023-05-13T16:00:24.681Z,19.87
2023-05-13T16:02:52.925Z,19.81
2023-05-13T16:05:21.092Z,19.75
2023-05-13T16:07:49.027Z,19.71
2023-05-13T16:10:16.998Z,19.67
2023-05-13T16:12:44.963Z,19.61
2023-05-13T16:15:12.886Z,19.56
2023-05-13T16:17:43.413Z,19.50
2023-05-13T16:20:12.041Z,19.44
2023-05-13T16:22:40.135Z,19.38
2023-05-13T16:25:10.387Z,19.33
2023-05-13T16:27:39.633Z,19.27
2023-05-13T16:30:08.015Z,19.22
2023-05-13T16:32:36.562Z,19.18
2023-05-13T16:35:05.711Z,19.13
2023-05-13T16:37:36.706Z,19.08
2023-05-13T16:40:05.404Z,19.02
2023-05-13T16:42:33.330Z,18.98
2023-05-13T16:45:01.759Z,18.89
2023-05-13T16:47:29.882Z,18.80
2023-05-13T16:49:57.858Z,18.72
2023-05-13T16:52:26.098Z,18.64
2023-05-13T16:54:56.591Z,18.57
2023-05-13T16:57:25.786Z,18.51
2023-05-13T16:59:53.675Z,18.42
2023-05-13T17:02:21.743Z,18.36
2023-05-13T17:04:49.812Z,18.28
2023-05-13T17:07:17.790Z,18.18
2023-05-13T17:09:45.882Z,18.07
2023-05-13T17:12:13.854Z,17.97
2023-05-13T17:14:41.891Z,17.88
2023-05-13T17:17:09.979Z,17.79
2023-05-13T17:19:38.125Z,17.70
2023-05-13T17:22:06.093Z,17.62
2023-05-13T17:24:34.089Z,17.53
2023-05-13T17:27:02.053Z,17.44
2023-05-13T17:29:30.052Z,17.35
2023-05-13T17:31:58.033Z,17.27
2023-05-13T17:34:26.017Z,17.18
2023-05-13T17:36:53.928Z,17.09
2023-05-13T17:39:21.866Z,16.99
2023-05-13T17:41:49.807Z,16.91
2023-05-13T17:44:19.989Z,16.80
2023-05-13T17:46:47.936Z,16.66
2023-05-13T17:49:16.014Z,16.50
2023-05-13T17:51:43.931Z,16.36
2023-05-13T17:54:12.077Z,16.23
2023-05-13T17:56:40.061Z,16.11
2023-05-13T17:59:08.018Z,16.02
2023-05-13T18:01:35.969Z,15.94
2023-05-13T18:04:03.926Z,15.84
2023-05-13T18:06:32.293Z,15.76
2023-05-13T18:09:00.408Z,15.71
2023-05-13T18:11:28.289Z,15.66
2023-05-13T18:13:56.325Z,15.60
2023-05-13T18:16:24.437Z,15.51
2023-05-13T18:18:52.436Z,15.45
2023-05-13T18:21:20.489Z,15.37
2023-05-13T18:23:48.388Z,15.28
2023-05-13T18:26:16.379Z,15.23
2023-05-13T18:28:46.901Z,15.15
2023-05-13T18:31:14.908Z,15.06
2023-05-13T18:33:42.852Z,14.98
2023-05-13T18:36:10.835Z,14.92
2023-05-13T18:38:39.614Z,14.86
2023-05-13T18:41:07.550Z,14.83
2023-05-13T18:43:35.759Z,14.79
2023-05-13T18:46:03.816Z,14.76
2023-05-13T18:48:31.776Z,14.73
2023-05-13T18:50:59.940Z,14.68
2023-05-13T18:53:28.035Z,14.64
2023-05-13T18:55:56.183Z,14.60
2023-05-13T18:58:24.859Z,14.54
2023-05-13T19:00:52.942Z,14.49
2023-05-13T19:03:20.988Z,14.43
2023-05-13T19:05:49.095Z,14.37
2023-05-13T19:08:17.055Z,14.32
2023-05-13T19:10:45.030Z,14.27
2023-05-13T19:13:14.632Z,14.22
2023-05-13T19:15:42.687Z,14.17
2023-05-13T19:18:10.868Z,14.11
2023-05-13T19:20:38.929Z,14.07
2023-05-13T19:23:06.940Z,14.03
2023-05-13T19:25:35.644Z,13.97
2023-05-13T19:28:03.758Z,13.90
2023-05-13T19:30:31.646Z,13.85
2023-05-13T19:32:59.802Z,13.78
2023-05-13T19:35:27.874Z,13.71
2023-05-13T19:37:56.400Z,13.64
2023-05-13T19:40:24.508Z,13.58
2023-05-13T19:42:52.837Z,13.51
2023-05-13T19:45:21.100Z,13.44
2023-05-13T19:47:49.703Z,13.38
2023-05-13T19:50:18.222Z,13.31
2023-05-13T19:52:46.191Z,13.24
2023-05-13T19:55:14.203Z,13.17
2023-05-13T19:57:42.998Z,13.09
2023-05-13T20:00:12.024Z,13.01
2023-05-13T20:02:40.321Z,12.94
2023-05-13T20:05:08.744Z,12.88
2023-05-13T20:07:36.748Z,12.81
2023-05-13T20:10:06.197Z,12.74
2023-05-13T20:12:34.157Z,12.67
2023-05-13T20:15:03.483Z,12.60
2023-05-13T20:17:31.891Z,12.54
2023-05-13T20:20:00.037Z,12.48
2023-05-13T20:22:28.076Z,12.42
2023-05-13T20:24:56.023Z,12.37
2023-05-13T20:27:23.894Z,12.32
2023-05-13T20:29:52.493Z,12.27
2023-05-13T20:32:24.834Z,12.21
2023-05-13T20:34:54.549Z,12.17
2023-05-13T20:37:23.925Z,12.12
2023-05-13T20:39:52.352Z,12.09
2023-05-13T20:42:22.405Z,12.05
2023-05-13T20:44:51.560Z,12.01
2023-05-13T20:47:20.626Z,11.97
2023-05-13T20:49:48.544Z,11.94
2023-05-13T20:52:16.755Z,11.89
2023-05-13T20:54:44.762Z,11.86
2023-05-13T20:57:12.661Z,11.82
2023-05-13T20:59:40.630Z,11.78
2023-05-13T21:02:08.617Z,11.74
2023-05-13T21:04:36.668Z,11.70
2023-05-13T21:07:06.764Z,11.67
2023-05-13T21:09:34.788Z,11.63
2023-05-13T21:12:02.717Z,11.59
2023-05-13T21:14:30.680Z,11.54
2023-05-13T21:17:02.881Z,11.49
2023-05-13T21:19:30.985Z,11.44
2023-05-13T21:22:01.630Z,11.39
2023-05-13T21:24:29.678Z,11.34
2023-05-13T21:26:57.538Z,11.30
2023-05-13T21:29:25.510Z,11.26
2023-05-13T21:31:54.573Z,11.23
2023-05-13T21:34:22.470Z,11.21
2023-05-13T21:36:50.733Z,11.17
2023-05-13T21:39:18.761Z,11.16
2023-05-13T21:41:47.709Z,11.15
2023-05-13T21:44:15.689Z,11.13
2023-05-13T21:46:43.616Z,11.10
2023-05-13T21:49:12.018Z,11.07
2023-05-13T21:51:40.129Z,11.03
2023-05-13T21:54:08.100Z,11.00
2023-05-13T21:56:36.047Z,10.97
2023-05-13T21:59:04.057Z,10.93
2023-05-13T22:01:32.021Z,10.89
2023-05-13T22:04:00.049Z,10.85
2023-05-13T22:06:28.105Z,10.80
2023-05-13T22:08:56.043Z,10.73
2023-05-13T22:11:23.870Z,10.68
2023-05-13T22:13:51.874Z,10.62
2023-05-13T22:16:19.955Z,10.54
2023-05-13T22:18:49.873Z,10.48
2023-05-13T22:21:17.947Z,10.42
2023-05-13T22:23:45.922Z,10.38
2023-05-13T22:26:13.826Z,10.33
2023-05-13T22:28:41.770Z,10.27
2023-05-13T22:31:09.676Z,10.22
2023-05-13T22:33:37.744Z,10.19
2023-05-13T22:36:05.847Z,10.17
2023-05-13T22:38:33.729Z,10.14
2023-05-13T22:41:01.792Z,10.11
2023-05-13T22:43:29.637Z,10.08
2023-05-13T22:45:57.593Z,10.04
2023-05-13T22:48:25.496Z,9.97
2023-05-13T22:50:54.221Z,9.91
2023-05-13T22:53:24.135Z,9.88
2023-05-13T22:55:52.252Z,9.86
2023-05-13T22:58:21.226Z,9.85
2023-05-13T23:00:49.965Z,9.83
2023-05-13T23:03:17.950Z,9.80
2023-05-13T23:05:45.961Z,9.77
2023-05-13T23:08:13.901Z,9.74
2023-05-13T23:10:41.856Z,9.71
2023-05-13T23:13:09.774Z,9.68
2023-05-13T23:15:37.696Z,9.64
2023-05-13T23:18:05.734Z,9.60
2023-05-13T23:20:33.716Z,9.57
2023-05-13T23:23:01.680Z,9.53
2023-05-13T23:25:29.643Z,9.49
2023-05-13T23:27:57.559Z,9.45
2023-05-13T23:30:25.588Z,9.41
2023-05-13T23:32:53.840Z,9.38
2023-05-13T23:35:21.913Z,9.34
2023-05-13T23:37:49.841Z,9.28
2023-05-13T23:40:17.867Z,9.25
2023-05-13T23:42:45.732Z,9.23
2023-05-13T23:45:13.638Z,9.21
2023-05-13T23:47:41.614Z,9.19
2023-05-13T23:50:09.971Z,9.17
2023-05-13T23:52:37.948Z,9.15
2023-05-13T23:55:06.485Z,9.13
2023-05-13T23:57:34.349Z,9.10
